• Join FlightAware (Why Join?)
  • Login
  • US Flag 
01:05AM EDT


 

Airport Tracker/Info


-or-


 

Live Flight TrackerFlight Track Log ✈ N900EL ✈ 20-Jul-2013 ✈ KELP - MMTC / TRC

Flight Track Log - Related Links

Times and Time Zones

All times are in EDT time to prevent confusion due to time zone crossing. See the N900EL flight status page for this flight to view local times or setup timezone preferences in your user account.

Time Position Orientation Groundspeed Altitude Reporting Facility
EDT Latitude Longitude Course Direction KTS MPH feet Rate Location/Type
10:55PM 31.8006 -106.3108 90° East 195 224 6,300  Level Albuquerque Center
10:56PM 31.7925 -106.2789 107° East 203 234 7,400 2,220 Climbing Albuquerque Center
10:57PM 31.7492 -106.2294 136° Southeast 218 251 10,000 2,580 Climbing Albuquerque Center
10:58PM 31.6972 -106.1775 140° Southeast 242 278 12,700 2,400 Climbing Albuquerque Center
10:59PM 31.6394 -106.1167 138° Southeast 280 322 14,900 2,040 Climbing Albuquerque Center
11:00PM 31.5800 -106.0492 136° Southeast 300 345 16,900 1,920 Climbing Albuquerque Center
11:01PM 31.5036 -105.9600 135° Southeast 325 374 18,900 1,860 Climbing Albuquerque Center
11:02PM 31.4325 -105.8853 138° Southeast 341 392 20,800 1,620 Climbing Albuquerque Center
11:03PM 31.3614 -105.8067 137° Southeast 351 404 22,300 1,560 Climbing Albuquerque Center
11:04PM 31.2869 -105.7231 136° Southeast 362 417 24,000 1,440 Climbing Albuquerque Center
11:05PM 31.2153 -105.6419 136° Southeast 369 425 25,300 1,140 Climbing Albuquerque Center
11:06PM 31.1411 -105.5586 136° Southeast 369 425 26,400 960 Climbing Albuquerque Center
11:07PM 31.0639 -105.4736 137° Southeast 380 437 27,300 780 Climbing Albuquerque Center
11:08PM 30.9775 -105.3989 143° Southeast 391 450 28,100 780 Climbing Albuquerque Center
11:09PM 30.8642 -105.3908 177° South 412 474 28,900 780 Climbing Albuquerque Center
11:10PM 30.7475 -105.3947 182° South 421 484 29,700 840 Climbing Albuquerque Center
11:11PM 30.6067 -105.3969 181° South 424 488 30,700 780 Climbing Albuquerque Center
11:12PM 30.4878 -105.4000 181° South 428 493 31,300 540 Climbing Albuquerque Center
11:13PM 30.3681 -105.4019 181° South 431 496 31,900 540 Climbing Albuquerque Center
11:14PM 30.2461 -105.4047 181° South 435 501 32,500 660 Climbing Albuquerque Center
11:15PM 30.1239 -105.4089 182° South 439 505 33,300 660 Climbing Albuquerque Center
11:16PM 30.0031 -105.4097 180° South 436 502 33,900 720 Climbing Albuquerque Center
11:17PM 29.8800 -105.4128 181° South 440 506 34,800 960 Climbing Albuquerque Center
11:18PM 29.7603 -105.4172 182° South 435 501 35,900 900 Climbing Albuquerque Center
11:19PM 29.6414 -105.4206 181° South 428 493 36,700 780 Climbing Albuquerque Center
11:20PM 29.5217 -105.4211 180° South 429 494 37,500 960 Climbing Albuquerque Center
11:21PM 29.4025 -105.4208 180° South 428 493 38,700 1,320 Climbing Albuquerque Center
11:22PM 29.2628 -105.4247 181° South 422 486 40,300 1,080 Climbing Albuquerque Center
11:23PM 29.1539 -105.3889 164° South 419 482 41,000 300 Climbing Albuquerque Center
11:24PM 29.0431 -105.3381 158° South 422 486 41,000  Level Albuquerque Center
11:25PM 28.9311 -105.2767 154° Southeast 438 504 41,000  Level Albuquerque Center
11:26PM 28.8164 -105.2161 155° Southeast 449 517 41,000  Level Albuquerque Center
11:28PM 28.6898 -105.1435 153° Southeast  Level Estimated
11:35PM 28.0330 -104.7696 153° Southeast  Level Estimated
11:36PM 27.9391 -104.7166 153° Southeast  Level Estimated
11:37PM 27.8451 -104.6637 154° Southeast  Level Estimated
11:38PM 27.7512 -104.6108 154° Southeast  Level Estimated
11:39PM 27.6572 -104.5580 154° Southeast  Level Estimated
11:40PM 27.5632 -104.5054 154° Southeast  Level Estimated
11:41PM 27.4692 -104.4528 154° Southeast  Level Estimated
11:42PM 27.3751 -104.4003 154° Southeast  Level Estimated
11:43PM 27.2810 -104.3479 154° Southeast  Level Estimated
11:44PM 27.1870 -104.2956 154° Southeast  Level Estimated
11:45PM 27.0929 -104.2434 154° Southeast  Level Estimated
11:46PM 26.9988 -104.1912 154° Southeast  Level Estimated
11:47PM 26.9046 -104.1392 154° Southeast  Level Estimated
11:48PM 26.8104 -104.0872 154° Southeast  Level Estimated
11:49PM 26.7163 -104.0354 154° Southeast  Level Estimated
11:50PM 26.6221 -103.9836 154° Southeast  Level Estimated
11:51PM 26.5279 -103.9319 154° Southeast  Level Estimated
11:52PM 26.4336 -103.8802 154° Southeast  Level Estimated
11:53PM 26.3394 -103.8287 154° Southeast  Level Estimated
11:54PM 26.2451 -103.7773 154° Southeast  Level Estimated
11:55PM 26.1508 -103.7259 154° Southeast  Level Estimated
11:56PM 26.0565 -103.6746 154° Southeast  Level Estimated
11:57PM 25.9622 -103.6234 154° Southeast  Level Estimated
11:58PM 25.8679 -103.5723 154° Southeast  Level Estimated
11:59PM 25.7735 -103.5213 154° Southeast  Level Estimated
12:00AM 25.6791 -103.4703 154° Southeast  Level Estimated
12:01AM 25.5847 -103.4194 154° Southeast  Level Estimated
12:02AM 25.5683 -103.4106 154° Southeast  Level Estimated
12:03AM 25.5683 -103.4106 234° Southwest  Level Estimated
12:04AM 25.5683 -103.4106 234° Southwest  Level Estimated
12:05AM 25.5683 -103.4106 234° Southwest  Level Estimated
12:06AM 25.5683 -103.4106 234° Southwest  Level Estimated
12:07AM 25.5683 -103.4106 234° Southwest  Level Estimated
12:08AM 25.5683 -103.4106 234° Southwest  Level Estimated
12:09AM 25.5683 -103.4106 234° Southwest  Level Estimated
12:10AM 25.5683 -103.4106 234° Southwest  Level Estimated
12:11AM 25.5683 -103.4106 234° Southwest  Level Estimated
12:12AM 25.5683 -103.4106 234° Southwest  Level Estimated
12:13AM 25.5683 -103.4106 234° Southwest  Level Estimated
12:14AM 25.5683 -103.4106 234° Southwest  Level Estimated
12:15AM 25.5683 -103.4106 234° Southwest  Level Estimated
12:16AM 25.5683 -103.4106 234° Southwest  Level Estimated
12:17AM 25.5683 -103.4106 234° Southwest  Level Estimated
12:18AM 25.5683 -103.4106 234° Southwest  Level Estimated